EGSS/STN METAR and TAF weather

Enter ICAO airport designator
Station Type Date Time Source
EGSS METAR 2021/07/30 07:50 UTC NOAA

EGSS 300750Z AUTO 17013KT 9999 FEW040 16/13 Q1002


Station Type Date Time Source
EGSS Decoded METAR 2021/07/30 07:50 UTC NOAA

Stansted Airport, United Kingdom (EGSS) 51-53N 000-14E 0M
Jul 30, 2021 - 03:50 AM EDT / 2021.07.30 0750 UTC
Wind: from the S (170 degrees) at 15 MPH (13 KT):0
Visibility: greater than 7 mile(s):0
Sky conditions: mostly clear
Temperature: 60 F (16 C)
Dew Point: 55 F (13 C)
Relative Humidity: 82%
Pressure (altimeter): 29.59 in. Hg (1002 hPa)
ob: EGSS 300750Z AUTO 17013KT 9999 FEW040 16/13 Q1002
cycle: 8

Station Type Date Time Source
EGSS TAF 2021/07/30 06:58 UTC NOAA

TAF
AMD EGSS 300549Z 3006/3112 12009KT 9999 SCT035
BECMG 3006/3008 18012KT
TEMPO 3006/3012 7000 RA SHRA BKN014 PROB40
TEMPO 3006/3012 4000 +SHRA BKN004
TEMPO 3008/3016 20018G28KT
TEMPO 3012/3020 7000 SHRA PROB30
TEMPO 3012/3018 4000 +SHRA BKN014 BKN020CB
BECMG 3013/3016 27013KT PROB30
TEMPO 3016/3020 28016G27KT PROB30
TEMPO 3020/3106 BKN012 PROB30
TEMPO 3110/3112 4000 +SHRA

Example: see airport list